石垣島の過去48時間の天気

石垣島 (Ishigaki jima)

現在時刻: 8/18 22:57 JST (8/18 13:57 UTC) 以下の時間は現地時間です。

過去48時間のMETAR気象情報
時間 風向 風速(m/s) 視程 気温(℃) 湿度(%) 気圧(hPa) 天気現象
18 22:00 6 10km以上 28 89 1009
18 21:00 6 10km以上 28 94 1008
18 20:00 7 10km以上 30 79 1008
18 19:00 6 10km以上 30 79 1008
18 18:00 6 10km以上 30 84 1008
18 17:00 7 10km以上 32 71 1007
18 16:00 7 10km以上 32 71 1007
18 15:00 6 10km以上 32 75 1008
18 14:00 7 10km以上 33 75 1008
18 13:00 7 10km以上 32 79 1008 周辺でしゅう雨
18 12:00 6 10km以上 32 75 1008 周辺でしゅう雨
18 11:00 7 10km以上 32 75 1008
18 10:00 南南東 6 10km以上 31 84 1008 周辺でしゅう雨
18 09:00 5 10km以上 31 75 1007 周辺でしゅう雨
18 08:00 6 10km以上 29 84 1007
18 07:00 5 10km以上 29 89 1006
18 06:00 5 10km以上 28 89 1006
18 05:00 5 10km以上 28 94 1006
18 04:00 5 10km以上 28 89 1006
18 03:00 6 10km以上 28 89 1007
18 02:00 6 10km以上 28 94 1007
18 01:00 南東 4 10km以上 28 94 1007
18 00:00 南南東 4 10km以上 29 89 1008
17 23:00 南東 5 10km以上 29 89 1008
17 22:00 南東 5 10km以上 28 94 1008
17 21:00 南東 6 10km以上 29 89 1007
17 20:00 東南東 5 10km以上 29 89 1007 周辺でしゅう雨
17 19:00 東南東 4 10km以上 28 94 1007 弱いしゅう雨
17 18:00 5 10km以上 30 84 1006 周辺でしゅう雨
17 17:00 東北東 5 10km以上 28 94 1006 弱いしゅう雨
17 16:35 5 10km以上 29 89 1007 弱いしゅう雨
17 16:05 南南東 5 10km以上 28 84 1007 弱いしゅう雨
17 16:00 6 10km以上 30 75 1007 弱いしゅう雨
17 15:00 4 10km以上 32 84 1007 弱い雨
17 14:00 北東 4 10km以上 29 94 1007
17 13:15 東北東 2 10km以上 28 94 1008 弱いしゅう雨
17 13:00 東南東 4 8000m 27 94 1008 しゅう雨
17 12:39 8 7000m 28 89 1008 強いしゅう雨
17 12:00 南東 5 10km以上 30 84 1008 弱いしゅう雨
17 11:45 南南東 6 10km以上 29 89 1008 しゅう雨
17 11:00 5 10km以上 32 71 1008
17 10:00 東南東 4 10km以上 32 75 1008
17 09:00 東南東 4 10km以上 31 75 1008
17 08:00 南東 4 10km以上 31 79 1008
17 07:00 南東 3 10km以上 29 84 1008
17 06:00 南東 4 10km以上 29 84 1007
17 05:00 南東 4 10km以上 29 84 1007
17 04:00 南東 3 10km以上 29 84 1007
17 03:00 南東 3 10km以上 29 84 1008
17 02:00 南東 3 10km以上 29 84 1008
17 01:00 南南東 2 10km以上 29 89 1008
17 00:00 南東 4 10km以上 29 89 1008
16 23:00 南東 4 10km以上 29 84 1009
ROIG 181300Z AUTO 19012KT 9999 FEW021 28/26 Q1009
ROIG 181200Z AUTO 18011KT 9999 FEW018 SCT036 BKN050 28/27 Q1008
ROIG 181100Z 18013KT 9999 SCT023 BKN/// 30/26 Q1008
ROIG 181000Z 17012KT 9999 SCT021 BKN/// 30/26 Q1008
ROIG 180900Z 17011KT 9999 SCT020 BKN/// 30/27 Q1008
ROIG 180800Z 18014KT 9999 FEW021 SCT060 BKN/// 32/26 Q1007
ROIG 180700Z 18014KT 9999 FEW020TCU FEW021 SCT028 BKN/// 32/26 Q1007
ROIG 180600Z 18012KT 140V210 9999 FEW021 SCT060 BKN/// 32/27 Q1008
ROIG 180500Z 17014KT 9999 SCT019 BKN/// 33/28 Q1008
ROIG 180400Z 18014KT 9999 VCSH FEW020 BKN090 32/28 Q1008
ROIG 180300Z 17012KT 140V210 9999 VCSH SCT020 32/27 Q1008
ROIG 180200Z 17013KT 9999 SCT018 32/27 Q1008
ROIG 180100Z 16012KT 9999 VCSH FEW018 31/28 Q1008
ROIG 180000Z 17010KT 9999 VCSH SCT018 31/26 Q1007
ROIG 172300Z 17011KT 9999 FEW018 29/26 Q1007
ROIG 172200Z AUTO 17010KT 9999 SCT017 BKN027 BKN032 29/27 Q1006
ROIG 172100Z AUTO 17010KT 9999 BKN017 BKN021 28/26 Q1006
ROIG 172000Z AUTO 17010KT 9999 BKN017 BKN026 28/27 Q1006
ROIG 171900Z AUTO 17010KT 9999 SCT019 28/26 Q1006
ROIG 171800Z AUTO 17011KT 9999 SCT015 SCT027 BKN035 28/26 Q1007
ROIG 171700Z AUTO 17011KT 9999 SCT017 BKN025 BKN034 28/27 Q1007
ROIG 171600Z AUTO 14008KT 9999 FEW013 BKN017 BKN027 28/27 Q1007
ROIG 171500Z AUTO 15007KT 9999 SCT017 BKN029 BKN032 //////TCU 29/27 Q1008
ROIG 171400Z AUTO 14010KT 9999 FEW017 //////TCU 29/27 Q1008
ROIG 171300Z AUTO 13009KT 9999 FEW045 SCT050 BKN060 28/27 Q1008
ROIG 171200Z AUTO 13012KT 9999 FEW017 SCT049 BKN060 //////TCU 29/27 Q1007
ROIG 171100Z 12009KT 9999 VCSH FEW015 SCT023 BKN047 29/27 Q1007
ROIG 171000Z 12008KT 080V140 9999 -SHRA FEW013 SCT019 FEW020TCU BKN033 28/27 Q1007
ROIG 170900Z 10010KT 9999 VCSH FEW019 FEW020TCU SCT029 BKN/// 30/27 Q1006
ROIG 170800Z 07009KT 9999 -SHRA FEW007 FEW020TCU SCT021 BKN/// 28/27 Q1006
ROIG 170735Z 08009KT 9999 -SHRA SCT013 FEW020TCU BKN034 29/27 Q1007 RMK 4CU013 1TCU020 6CU034 A2974 TCU 8KM N MOV NW
ROIG 170705Z 16010KT 9999 R04/0800VP2000D -SHRA SCT017 FEW020TCU BKN032 28/25 Q1007 RMK 4CU017 1TCU020 6CU032 A2974 TCU OHD MOV NW
ROIG 170700Z 10012KT 070V140 9999 -SHRA SCT019 FEW020TCU BKN035 30/25 Q1007
ROIG 170600Z 08007KT 040V110 9999 -RA FEW014 SCT041 BKN/// 32/29 Q1007
ROIG 170500Z 05007KT 9999 FEW015 SCT023 BKN035 29/28 Q1007
ROIG 170415Z 06004KT 020V100 9999 -SHRA FEW007 FEW020TCU SCT022 BKN029 28/27 Q1008 RMK 1ST007 1TCU020 3CU022 5CU029 A2977 TCU 25KM NW MOV NW
ROIG 170400Z 11008KT 8000 R04/1800D SHRA FEW008 FEW015TCU BKN020 27/26 Q1008
ROIG 170339Z 09015KT 7000 R04/0550VP2000D +SHRA FEW010 FEW015TCU BKN020 28/26 Q1008 RMK 2CU010 1TCU015 7CU020 A2979 TCU OHD MOV NW RI++
ROIG 170300Z 13009KT 9999 -SHRA FEW015 BKN050 BKN/// 30/27 Q1008
ROIG 170245Z 15011KT 120V180 9999 R04/0800VP2000D SHRA SCT015 BKN030 29/27 Q1008 RMK 3CU015 5CU030 A2979
ROIG 170200Z 10009KT 9999 SCT019 BKN/// 32/26 Q1008
ROIG 170100Z 12008KT 9999 SCT020 BKN/// 32/27 Q1008
ROIG 170000Z 12008KT 9999 FEW020 SCT/// 31/26 Q1008
ROIG 162300Z 14008KT 9999 FEW020 31/27 Q1008
ROIG 162200Z AUTO 14005KT 9999 SCT020 29/26 Q1008
ROIG 162100Z AUTO 13007KT 9999 SCT020 29/26 Q1007
ROIG 162000Z AUTO 13008KT 9999 FEW019 29/26 Q1007
ROIG 161900Z AUTO 14006KT 9999 SCT020 SCT031 29/26 Q1007
ROIG 161800Z AUTO 14006KT 9999 FEW020 29/26 Q1008
ROIG 161700Z AUTO 14006KT 9999 FEW020 SCT036 29/26 Q1008
ROIG 161600Z AUTO 15004KT 130V190 9999 NCD 29/27 Q1008
ROIG 161500Z AUTO 14007KT 9999 NSC 29/27 Q1008
ROIG 161400Z AUTO 14007KT 9999 FEW020 29/26 Q1009